Cozumel International Airport
MMCZ : now visible

Airfield :











YOU CAN JOIN US ON...

 
LOGIN :

Register | Disclaimer

   EN    FR    IT 

 









Legend :    VFR   Marginal VFR   IFR   Intensive IFR   Very Intensive IFR
Visi :
Ceiling :
>= 8 km
>= 3000ft
5 to 8 km
1000 to 3000 ft
1500m to 5 km
500 to 1000 ft
800 to 1500m
200 to 500 ft
< 800m
< 200 ft
Symbols :   Thunderstorms  Fog  Heavy snow  Heavy precipitations  Wind > 20 kt






- Airport Elevation : 15 ft
- IATA code : CZM


MMCZ - Cozumel International

CURRENT METAR :
  • 232243Z 10004KT 8SM SCT015TCU BKN250 29/25 A2986 RMK 8/208 SC AC

EXPIRED METARs :
  • 232152Z 11011KT 8SM SCT015TCU BKN250 30/25 A2985 RMK 8/208 SC AC
  • 232045Z 11010KT 8SM SCT015TCU BKN250 30/26 A2983 RMK SLP108 57023 962 8/208 SC AC

TAF TAF MMCZ
Valid from the 23 at 18:00 until the 25 at 00:00 UTC


231719Z 2318/2424 10015KT P6SM BKN020CB OVC100
TEMPO 2321/2401 4SM TSRA
BECMG 2402/2403 00000KT
FM240600 00000KT P6SM OVC015
FM241500 13010KT P6SM SCT010 BKN230



MET'MAP, your aeronautical weather chart ! - Copyright ORBIFLY December 2007 - Disclaimer

ORBIFLY MET'MAP TEAM :

Programming & Development : Alexandra Zaïnal
Concept & Development : Baudouin d'Aumeries
Co-Development & Prog : Marc-Olivier Méhu
Technical & hardware support : Manuel Goepfert

Contact : metmap@orbifly.com




SOURCES & CREDITS :

   NOAA       Earth
Advisory